createdAt,value
2023-02-12T00:00:08.630Z,100075.33
2023-02-12T00:01:13.143Z,100070.14
2023-02-12T00:02:16.926Z,100068.48
2023-02-12T00:03:20.200Z,100071.96
2023-02-12T00:04:23.975Z,100074.05
2023-02-12T00:05:28.427Z,100078.33
2023-02-12T00:06:31.686Z,100080.57
2023-02-12T00:07:35.230Z,100083.85
2023-02-12T00:08:40.372Z,100079.77
2023-02-12T00:09:42.843Z,100077.63
2023-02-12T00:10:46.366Z,100083.85
2023-02-12T00:11:49.348Z,100068.57
2023-02-12T00:12:55.646Z,100077.75
2023-02-12T00:13:59.595Z,100078.66
2023-02-12T00:15:03.101Z,100082.88
2023-02-12T00:16:10.214Z,100083.52
2023-02-12T00:17:13.033Z,100080.46
2023-02-12T00:18:16.449Z,100089.73
2023-02-12T00:19:20.281Z,100092.89
2023-02-12T00:20:23.446Z,100091.58
2023-02-12T00:21:26.953Z,100093.35
2023-02-12T00:22:30.352Z,100094.06
2023-02-12T00:23:32.607Z,100099.97
2023-02-12T00:24:36.835Z,100088.88
2023-02-12T00:25:42.009Z,100095.73
2023-02-12T00:26:46.169Z,100095.17
2023-02-12T00:27:51.429Z,100095.98
2023-02-12T00:28:54.828Z,100097.44
2023-02-12T00:30:00.359Z,100098.13
2023-02-12T00:31:07.286Z,100101.02
2023-02-12T00:32:14.048Z,100101.87
2023-02-12T00:33:17.184Z,100106.16
2023-02-12T00:34:21.689Z,100105.09
2023-02-12T00:35:25.164Z,100103.59
2023-02-12T00:36:29.085Z,100104.13
2023-02-12T00:37:32.687Z,100113.76
2023-02-12T00:38:36.705Z,100111.73
2023-02-12T00:39:39.279Z,100113.56
2023-02-12T00:40:42.501Z,100111.84
2023-02-12T00:41:45.347Z,100105.55
2023-02-12T00:42:51.355Z,100112.95
2023-02-12T00:43:56.911Z,100118.02
2023-02-12T00:45:00.294Z,100113.53
2023-02-12T00:46:03.034Z,100117.87
2023-02-12T00:47:06.634Z,100123.83
2023-02-12T00:48:09.799Z,100118.02
2023-02-12T00:49:13.760Z,100122.06
2023-02-12T00:50:17.259Z,100124.82
2023-02-12T00:51:21.383Z,100120.48
2023-02-12T00:52:24.474Z,100123.66
2023-02-12T00:53:27.656Z,100119.69
2023-02-12T00:54:32.548Z,100129.72
2023-02-12T00:55:34.771Z,100127.87
2023-02-12T00:56:38.390Z,100127.15
2023-02-12T00:57:42.717Z,100123.22
2023-02-12T00:58:46.128Z,100121.91
2023-02-12T00:59:49.427Z,100126.05
2023-02-12T01:00:54.589Z,100116.52
2023-02-12T01:01:59.446Z,100125.38
2023-02-12T01:03:03.073Z,100131.34
2023-02-12T01:04:11.093Z,100121.85
2023-02-12T01:05:14.503Z,100131.64
2023-02-12T01:06:17.969Z,100137.34
2023-02-12T01:07:25.765Z,100128.37
2023-02-12T01:08:28.946Z,100131.34
2023-02-12T01:09:32.774Z,100131.64
2023-02-12T01:10:35.747Z,100133.86
2023-02-12T01:11:40.417Z,100143.44
2023-02-12T01:12:52.896Z,100146.27
2023-02-12T01:13:57.346Z,100150.14
2023-02-12T01:15:00.956Z,100162.30
2023-02-12T01:16:18.197Z,100153.93
2023-02-12T01:17:22.367Z,100162.09
2023-02-12T01:18:27.961Z,100158.87
2023-02-12T01:19:33.690Z,100154.14
2023-02-12T01:20:38.848Z,100163.00
2023-02-12T01:21:42.237Z,100161.59
2023-02-12T01:22:46.693Z,100162.34
2023-02-12T01:23:50.304Z,100162.14
2023-02-12T01:24:53.587Z,100160.23
2023-02-12T01:25:58.877Z,100164.31
2023-02-12T01:27:02.488Z,100165.62
2023-02-12T01:28:07.605Z,100166.78
2023-02-12T01:29:11.170Z,100165.67
2023-02-12T01:30:16.624Z,100163.91
2023-02-12T01:31:22.347Z,100168.49
2023-02-12T01:32:28.071Z,100171.88
2023-02-12T01:33:32.649Z,100178.92
2023-02-12T01:34:35.750Z,100175.78
2023-02-12T01:35:39.965Z,100174.98
2023-02-12T01:36:43.436Z,100176.99
2023-02-12T01:37:49.794Z,100187.28
2023-02-12T01:38:53.115Z,100190.06
2023-02-12T01:39:56.667Z,100190.48
2023-02-12T01:41:09.776Z,100190.69
2023-02-12T01:42:15.576Z,100195.36
2023-02-12T01:43:18.250Z,100186.69
2023-02-12T01:44:23.920Z,100199.75
2023-02-12T01:45:31.407Z,100200.00
2023-02-12T01:46:35.986Z,100206.05
2023-02-12T01:47:44.076Z,100214.02
2023-02-12T01:48:48.452Z,100212.95
2023-02-12T01:49:52.032Z,100213.86
2023-02-12T01:50:56.686Z,100225.41
2023-02-12T01:52:01.331Z,100225.63
2023-02-12T01:53:04.837Z,100224.02
2023-02-12T01:54:09.065Z,100230.16
2023-02-12T01:55:13.100Z,100230.44
2023-02-12T01:56:16.924Z,100234.09
2023-02-12T01:57:20.844Z,100234.20
2023-02-12T01:58:28.864Z,100237.20
2023-02-12T01:59:34.223Z,100234.59
2023-02-12T02:00:39.196Z,100239.93
2023-02-12T02:01:42.675Z,100243.13
2023-02-12T02:02:48.327Z,100240.41
2023-02-12T02:03:52.525Z,100242.55
2023-02-12T02:04:57.715Z,100255.80
2023-02-12T02:06:04.864Z,100254.63
2023-02-12T02:07:09.314Z,100254.64
2023-02-12T02:08:15.224Z,100252.82
2023-02-12T02:09:19.449Z,100264.48
2023-02-12T02:10:26.440Z,100267.28
2023-02-12T02:11:51.921Z,100264.27
2023-02-12T02:13:16.636Z,100265.44
2023-02-12T02:14:35.321Z,100277.59
2023-02-12T02:15:39.782Z,100270.33
2023-02-12T02:16:47.742Z,100280.92
2023-02-12T02:18:04.606Z,100280.45
2023-02-12T02:19:14.900Z,100283.69
2023-02-12T02:20:39.329Z,100279.07
2023-02-12T02:21:47.368Z,100280.73
2023-02-12T02:22:59.809Z,100289.08
2023-02-12T02:24:20.107Z,100289.73
2023-02-12T02:25:40.738Z,100289.27
2023-02-12T02:26:49.462Z,100296.17
2023-02-12T02:27:56.205Z,100305.56
2023-02-12T02:29:05.293Z,100302.18
2023-02-12T02:30:10.763Z,100317.86
2023-02-12T02:31:16.930Z,100317.91
2023-02-12T02:32:25.185Z,100313.33
2023-02-12T02:33:32.337Z,100317.95
2023-02-12T02:34:37.818Z,100321.53
2023-02-12T02:35:43.164Z,100328.39
2023-02-12T02:37:00.610Z,100327.76
2023-02-12T02:37:58.571Z,100328.70
2023-02-12T02:39:03.638Z,100331.98
2023-02-12T02:40:09.557Z,100331.73
2023-02-12T02:41:20.462Z,100339.83
2023-02-12T02:42:27.528Z,100348.64
2023-02-12T02:43:33.719Z,100345.43
2023-02-12T02:44:39.443Z,100343.62
2023-02-12T02:45:53.836Z,100358.48
2023-02-12T02:46:59.780Z,100362.83
2023-02-12T02:48:04.934Z,100365.09
2023-02-12T02:49:09.016Z,100362.11
2023-02-12T02:50:13.419Z,100368.97
2023-02-12T02:51:20.412Z,100375.07
2023-02-12T02:52:25.814Z,100378.20
2023-02-12T02:53:32.455Z,100387.75
2023-02-12T02:54:39.496Z,100390.84
2023-02-12T02:55:47.184Z,100393.30
2023-02-12T02:56:51.832Z,100400.72
2023-02-12T02:57:56.088Z,100395.27
2023-02-12T02:59:05.014Z,100410.86
2023-02-12T03:00:23.874Z,100409.09
2023-02-12T03:01:33.231Z,100414.50
2023-02-12T03:02:42.201Z,100410.94
2023-02-12T03:03:48.708Z,100412.81
2023-02-12T03:04:54.080Z,100423.75
2023-02-12T03:05:59.009Z,100422.55
2023-02-12T03:07:14.251Z,100429.30
2023-02-12T03:08:26.746Z,100431.73
2023-02-12T03:09:32.021Z,100425.83
2023-02-12T03:10:37.197Z,100430.83
2023-02-12T03:11:40.966Z,100437.08
2023-02-12T03:12:47.340Z,100449.00
2023-02-12T03:13:52.613Z,100456.03
2023-02-12T03:14:58.427Z,100467.91
2023-02-12T03:16:09.577Z,100466.20
2023-02-12T03:17:16.813Z,100471.73
2023-02-12T03:18:23.135Z,100474.98
2023-02-12T03:19:28.528Z,100481.75
2023-02-12T03:20:34.019Z,100485.44
2023-02-12T03:21:48.301Z,100479.42
2023-02-12T03:22:54.063Z,100500.24
2023-02-12T03:24:01.669Z,100499.08
2023-02-12T03:25:09.983Z,100490.38
2023-02-12T03:26:14.795Z,100514.84
2023-02-12T03:27:23.721Z,100521.97
2023-02-12T03:28:31.823Z,100530.41
2023-02-12T03:29:37.070Z,100524.27
2023-02-12T03:30:46.442Z,100531.46
2023-02-12T03:31:54.159Z,100528.78
2023-02-12T03:33:02.294Z,100533.78
2023-02-12T03:34:08.294Z,100539.01
2023-02-12T03:35:19.540Z,100547.72
2023-02-12T03:36:23.674Z,100547.88
2023-02-12T03:37:35.105Z,100542.88
2023-02-12T03:38:40.395Z,100548.97
2023-02-12T03:39:57.470Z,100543.58
2023-02-12T03:41:02.883Z,100549.89
2023-02-12T03:42:14.818Z,100554.47
2023-02-12T03:43:23.339Z,100552.58
2023-02-12T03:44:37.498Z,100551.69
2023-02-12T03:45:52.600Z,100550.89
2023-02-12T03:47:00.608Z,100551.50
2023-02-12T03:48:08.275Z,100563.48
2023-02-12T03:49:13.567Z,100565.63
2023-02-12T03:50:20.522Z,100576.28
2023-02-12T03:51:31.959Z,100576.18
2023-02-12T03:52:34.847Z,100579.66
2023-02-12T03:53:38.239Z,100578.06
2023-02-12T03:54:41.952Z,100584.52
2023-02-12T03:55:47.755Z,100589.84
2023-02-12T03:57:05.568Z,100596.84
2023-02-12T03:58:10.037Z,100598.45
2023-02-12T03:59:13.700Z,100595.84
2023-02-12T04:00:18.236Z,100602.85
2023-02-12T04:01:27.834Z,100611.67
2023-02-12T04:02:32.617Z,100608.08
2023-02-12T04:03:37.040Z,100623.98
2023-02-12T04:04:40.493Z,100610.29
2023-02-12T04:05:43.832Z,100624.94
2023-02-12T04:06:48.754Z,100622.66
2023-02-12T04:07:53.256Z,100620.00
2023-02-12T04:08:57.702Z,100638.06
2023-02-12T04:10:04.305Z,100638.84
2023-02-12T04:11:08.868Z,100634.45
2023-02-12T04:12:23.245Z,100639.15
2023-02-12T04:13:32.072Z,100640.79
2023-02-12T04:14:47.393Z,100639.15
2023-02-12T04:15:58.681Z,100652.27
2023-02-12T04:17:03.709Z,100656.11
2023-02-12T04:18:08.013Z,100646.87
2023-02-12T04:19:13.545Z,100659.91
2023-02-12T04:20:18.593Z,100652.32
2023-02-12T04:21:23.880Z,100662.82
2023-02-12T04:22:35.113Z,100672.48
2023-02-12T04:23:51.083Z,100674.23
2023-02-12T04:24:59.256Z,100672.77
2023-02-12T04:26:12.369Z,100677.94
2023-02-12T04:27:23.184Z,100678.85
2023-02-12T04:28:33.782Z,100683.93
2023-02-12T04:29:41.257Z,100686.61
2023-02-12T04:31:01.134Z,100694.52
2023-02-12T04:32:06.661Z,100694.45
2023-02-12T04:33:11.857Z,100701.73
2023-02-12T04:34:18.062Z,100705.40
2023-02-12T04:35:24.415Z,100695.73
2023-02-12T04:36:32.719Z,100696.48
2023-02-12T04:37:41.977Z,100704.45
2023-02-12T04:38:47.034Z,100711.16
2023-02-12T04:39:53.435Z,100719.08
2023-02-12T04:40:56.762Z,100715.77
2023-02-12T04:42:00.348Z,100726.34
2023-02-12T04:43:03.959Z,100724.45
2023-02-12T04:44:21.898Z,100728.87
2023-02-12T04:45:34.815Z,100722.53
2023-02-12T04:46:38.815Z,100731.20
2023-02-12T04:47:42.634Z,100725.08
2023-02-12T04:48:56.270Z,100733.23
2023-02-12T04:49:59.448Z,100723.61
2023-02-12T04:51:02.964Z,100734.03
2023-02-12T04:52:07.235Z,100725.50
2023-02-12T04:53:11.020Z,100730.70
2023-02-12T04:54:16.824Z,100728.95
2023-02-12T04:55:22.856Z,100738.67
2023-02-12T04:56:26.330Z,100737.70
2023-02-12T04:57:30.612Z,100743.53
2023-02-12T04:58:34.800Z,100746.73
2023-02-12T04:59:37.385Z,100749.72
2023-02-12T05:00:41.496Z,100759.37
2023-02-12T05:01:44.925Z,100749.84
2023-02-12T05:02:48.620Z,100749.70
2023-02-12T05:03:53.778Z,100759.37
2023-02-12T05:04:57.958Z,100755.89
2023-02-12T05:06:08.660Z,100764.50
2023-02-12T05:07:11.518Z,100760.84
2023-02-12T05:08:14.175Z,100776.48
2023-02-12T05:09:18.864Z,100770.56
2023-02-12T05:10:22.156Z,100779.06
2023-02-12T05:11:24.394Z,100778.85
2023-02-12T05:12:27.688Z,100782.53
2023-02-12T05:13:31.923Z,100785.29
2023-02-12T05:14:35.325Z,100798.20
2023-02-12T05:15:41.262Z,100787.59
2023-02-12T05:16:44.965Z,100785.03
2023-02-12T05:17:51.270Z,100795.50
2023-02-12T05:18:54.774Z,100794.86
2023-02-12T05:19:58.907Z,100798.42
2023-02-12T05:21:03.277Z,100804.99
2023-02-12T05:22:08.642Z,100803.90
2023-02-12T05:23:11.388Z,100806.56
2023-02-12T05:24:15.466Z,100815.41
2023-02-12T05:25:17.790Z,100819.80
2023-02-12T05:26:22.036Z,100821.61
2023-02-12T05:27:25.433Z,100816.51
2023-02-12T05:28:29.309Z,100832.37
2023-02-12T05:29:32.749Z,100820.86
2023-02-12T05:30:35.426Z,100825.28
2023-02-12T05:31:38.991Z,100826.13
2023-02-12T05:32:42.731Z,100832.02
2023-02-12T05:33:47.351Z,100847.84
2023-02-12T05:34:51.418Z,100835.71
2023-02-12T05:35:55.157Z,100844.41
2023-02-12T05:37:03.236Z,100839.80
2023-02-12T05:38:06.417Z,100832.91
2023-02-12T05:39:11.179Z,100845.06
2023-02-12T05:40:15.516Z,100845.95
2023-02-12T05:41:22.792Z,100851.17
2023-02-12T05:42:25.998Z,100850.09
2023-02-12T05:43:29.487Z,100862.30
2023-02-12T05:44:33.081Z,100860.96
2023-02-12T05:45:37.751Z,100874.70
2023-02-12T05:46:43.523Z,100879.80
2023-02-12T05:47:46.640Z,100869.09
2023-02-12T05:48:52.328Z,100880.03
2023-02-12T05:49:55.846Z,100888.06
2023-02-12T05:51:08.851Z,100884.66
2023-02-12T05:52:13.233Z,100881.19
2023-02-12T05:53:16.905Z,100888.09
2023-02-12T05:54:21.042Z,100892.44
2023-02-12T05:55:24.329Z,100895.16
2023-02-12T05:56:29.723Z,100897.77
2023-02-12T05:57:32.938Z,100899.66
2023-02-12T05:58:35.484Z,100906.62
2023-02-12T05:59:40.236Z,100912.08
2023-02-12T06:00:43.277Z,100906.98
2023-02-12T06:01:48.936Z,100907.91
2023-02-12T06:02:52.498Z,100910.48
2023-02-12T06:03:55.631Z,100918.01
2023-02-12T06:04:58.821Z,100921.58
2023-02-12T06:06:02.831Z,100921.55
2023-02-12T06:07:07.116Z,100929.25
2023-02-12T06:08:11.704Z,100925.52
2023-02-12T06:09:16.076Z,100936.16
2023-02-12T06:10:19.141Z,100944.09
2023-02-12T06:11:22.538Z,100939.01
2023-02-12T06:12:25.532Z,100943.88
2023-02-12T06:13:28.296Z,100943.91
2023-02-12T06:14:32.100Z,100947.38
2023-02-12T06:15:38.616Z,100944.73
2023-02-12T06:16:42.770Z,100949.70
2023-02-12T06:17:46.718Z,100951.08
2023-02-12T06:18:49.397Z,100959.41
2023-02-12T06:19:55.519Z,100947.78
2023-02-12T06:20:59.106Z,100944.84
2023-02-12T06:22:02.612Z,100964.72
2023-02-12T06:23:05.933Z,100953.27
2023-02-12T06:24:10.562Z,100954.49
2023-02-12T06:25:14.172Z,100963.76
2023-02-12T06:26:18.092Z,100958.41
2023-02-12T06:28:24.862Z,100966.11
2023-02-12T06:29:27.243Z,100972.52
2023-02-12T06:30:32.432Z,100973.49
2023-02-12T06:31:36.942Z,100983.05
2023-02-12T06:32:39.332Z,100983.25
2023-02-12T06:33:42.837Z,100981.12
2023-02-12T06:34:45.813Z,100973.05
2023-02-12T06:35:49.129Z,100970.70
2023-02-12T06:36:52.728Z,100985.20
2023-02-12T06:37:55.840Z,100977.83
2023-02-12T06:38:58.926Z,100987.62
2023-02-12T06:40:02.024Z,100986.92
2023-02-12T06:41:05.545Z,100980.67
2023-02-12T06:42:07.843Z,100983.20
2023-02-12T06:43:10.313Z,100984.64
2023-02-12T06:44:14.058Z,100985.82
2023-02-12T06:45:17.637Z,100982.48
2023-02-12T06:46:22.584Z,100981.20
2023-02-12T06:47:27.246Z,100985.61
2023-02-12T06:48:31.000Z,100984.22
2023-02-12T06:49:34.152Z,100983.63
2023-02-12T06:50:37.635Z,100987.08
2023-02-12T06:51:40.911Z,100985.66
2023-02-12T06:52:46.110Z,100993.49
2023-02-12T06:53:50.474Z,100982.70
2023-02-12T06:54:53.882Z,100985.75
2023-02-12T06:55:58.619Z,100980.14
2023-02-12T06:57:02.044Z,100988.05
2023-02-12T06:58:06.506Z,100985.72
2023-02-12T06:59:12.622Z,100988.91
2023-02-12T07:00:17.752Z,100991.66
2023-02-12T07:01:23.063Z,100996.86
2023-02-12T07:02:25.423Z,100999.61
2023-02-12T07:03:28.686Z,100995.31
2023-02-12T07:04:32.215Z,101003.77
2023-02-12T07:05:37.287Z,101011.27
2023-02-12T07:06:41.216Z,101009.03
2023-02-12T07:07:44.391Z,101006.64
2023-02-12T07:08:47.595Z,101009.42
2023-02-12T07:09:51.192Z,101012.93
2023-02-12T07:10:54.384Z,101011.33
2023-02-12T07:12:00.786Z,101015.16
2023-02-12T07:13:05.300Z,101021.62
2023-02-12T07:14:07.632Z,101014.81
2023-02-12T07:15:11.548Z,101019.28
2023-02-12T07:16:16.654Z,101013.76
2023-02-12T07:17:19.080Z,101026.66
2023-02-12T07:18:26.948Z,101030.39
2023-02-12T07:19:30.753Z,101029.69
2023-02-12T07:20:33.251Z,101024.98
2023-02-12T07:21:37.788Z,101023.55
2023-02-12T07:22:41.519Z,101036.22
2023-02-12T07:23:51.005Z,101032.16
2023-02-12T07:24:56.554Z,101039.39
2023-02-12T07:26:01.522Z,101047.27
2023-02-12T07:27:08.155Z,101069.02
2023-02-12T07:28:11.915Z,101072.95
2023-02-12T07:29:15.132Z,101080.63
2023-02-12T07:30:23.067Z,101096.44
2023-02-12T07:31:26.755Z,101093.38
2023-02-12T07:32:33.323Z,101097.91
2023-02-12T07:33:37.468Z,101112.38
2023-02-12T07:34:40.012Z,101107.70
2023-02-12T07:35:43.525Z,101111.17
2023-02-12T07:36:46.394Z,101094.00
2023-02-12T07:37:49.895Z,101088.61
2023-02-12T07:38:54.203Z,101079.47
2023-02-12T07:39:57.867Z,101085.92
2023-02-12T07:41:12.841Z,101092.37
2023-02-12T07:42:17.193Z,101089.48
2023-02-12T07:43:22.256Z,101093.66
2023-02-12T07:44:25.413Z,101090.44
2023-02-12T07:45:29.864Z,101101.64
2023-02-12T07:46:35.080Z,101090.56
2023-02-12T07:47:38.152Z,101081.37
2023-02-12T07:48:45.546Z,101089.64
2023-02-12T07:49:49.456Z,101088.56
2023-02-12T07:50:54.919Z,101094.53
2023-02-12T07:51:57.411Z,101097.97
2023-02-12T07:53:03.963Z,101095.79
2023-02-12T07:54:08.699Z,101099.77
2023-02-12T07:55:11.478Z,101109.47
2023-02-12T07:56:17.596Z,101096.50
2023-02-12T07:57:22.138Z,101101.60
2023-02-12T07:58:25.327Z,101107.70
2023-02-12T07:59:31.228Z,101090.87
2023-02-12T08:00:38.887Z,101095.01
2023-02-12T08:01:43.156Z,101095.44
2023-02-12T08:02:52.008Z,101089.22
2023-02-12T08:03:57.276Z,101100.67
2023-02-12T08:05:01.321Z,101098.37
2023-02-12T08:06:12.530Z,101109.06
2023-02-12T08:07:15.319Z,101106.69
2023-02-12T08:08:19.846Z,101107.42
2023-02-12T08:09:26.769Z,101114.41
2023-02-12T08:10:32.334Z,101109.23
2023-02-12T08:11:35.173Z,101109.38
2023-02-12T08:12:37.518Z,101120.46
2023-02-12T08:13:40.939Z,101124.07
2023-02-12T08:14:44.527Z,101130.44
2023-02-12T08:15:47.650Z,101134.10
2023-02-12T08:16:51.819Z,101150.34
2023-02-12T08:17:56.202Z,101161.98
2023-02-12T08:19:14.283Z,101169.98
2023-02-12T08:20:05.916Z,101156.78
2023-02-12T08:21:10.792Z,101175.11
2023-02-12T08:22:14.338Z,101171.77
2023-02-12T08:23:17.800Z,101162.66
2023-02-12T08:24:23.404Z,101163.22
2023-02-12T08:25:26.800Z,101170.21
2023-02-12T08:26:31.661Z,101167.89
2023-02-12T08:27:35.267Z,101169.25
2023-02-12T08:28:40.455Z,101158.95
2023-02-12T08:29:43.844Z,101171.75
2023-02-12T08:30:47.144Z,101169.34
2023-02-12T08:31:51.323Z,101157.22
2023-02-12T08:32:54.882Z,101144.19
2023-02-12T08:34:00.183Z,101159.53
2023-02-12T08:35:03.448Z,101162.27
2023-02-12T08:36:12.221Z,101173.47
2023-02-12T08:37:15.474Z,101163.45
2023-02-12T08:38:19.407Z,101157.75
2023-02-12T08:39:24.514Z,101166.41
2023-02-12T08:40:28.086Z,101170.25
2023-02-12T08:41:31.375Z,101174.98
2023-02-12T08:42:34.679Z,101187.72
2023-02-12T08:43:38.595Z,101185.69
2023-02-12T08:44:43.357Z,101196.02
2023-02-12T08:45:46.664Z,101191.53
2023-02-12T08:46:51.316Z,101197.75
2023-02-12T08:47:55.337Z,101196.02
2023-02-12T08:48:59.882Z,101197.61
2023-02-12T08:50:05.579Z,101195.09
2023-02-12T08:51:15.023Z,101203.73
2023-02-12T08:52:20.328Z,101209.36
2023-02-12T08:53:23.078Z,101228.55
2023-02-12T08:54:28.582Z,101216.92
2023-02-12T08:55:32.039Z,101211.85
2023-02-12T08:56:35.164Z,101208.16
2023-02-12T08:57:38.053Z,101203.01
2023-02-12T08:58:41.692Z,101211.24
2023-02-12T08:59:43.913Z,101210.66
2023-02-12T09:00:47.197Z,101218.22
2023-02-12T09:01:52.401Z,101222.06
2023-02-12T09:02:55.879Z,101223.14
2023-02-12T09:03:59.709Z,101216.43
2023-02-12T09:05:04.570Z,101208.61
2023-02-12T09:06:07.760Z,101205.38
2023-02-12T09:07:12.311Z,101211.03
2023-02-12T09:08:17.696Z,101214.79
2023-02-12T09:09:20.980Z,101214.03
2023-02-12T09:10:24.379Z,101210.15
2023-02-12T09:11:33.183Z,101214.03
2023-02-12T09:12:36.815Z,101230.67
2023-02-12T09:13:41.371Z,101215.15
2023-02-12T09:14:46.335Z,101209.47
2023-02-12T09:15:49.570Z,101219.28
2023-02-12T09:16:53.242Z,101215.02
2023-02-12T09:17:57.074Z,101213.61
2023-02-12T09:19:03.921Z,101210.09
2023-02-12T09:20:08.151Z,101207.38
2023-02-12T09:21:14.157Z,101220.20
2023-02-12T09:22:19.512Z,101220.80
2023-02-12T09:23:24.124Z,101215.91
2023-02-12T09:24:28.490Z,101216.93
2023-02-12T09:25:34.333Z,101214.47
2023-02-12T09:26:38.378Z,101209.33
2023-02-12T09:27:41.788Z,101197.33
2023-02-12T09:28:45.932Z,101200.84
2023-02-12T09:29:49.092Z,101199.16
2023-02-12T09:30:52.381Z,101192.91
2023-02-12T09:31:56.028Z,101190.67
2023-02-12T09:32:59.290Z,101206.56
2023-02-12T09:34:04.390Z,101207.77
2023-02-12T09:35:08.194Z,101214.11
2023-02-12T09:36:13.119Z,101209.61
2023-02-12T09:37:16.682Z,101206.55
2023-02-12T09:38:20.178Z,101197.23
2023-02-12T09:39:23.574Z,101203.71
2023-02-12T09:40:46.637Z,101203.08
2023-02-12T09:41:51.984Z,101204.86
2023-02-12T09:43:03.328Z,101205.16
2023-02-12T09:44:16.646Z,101199.91
2023-02-12T09:45:27.789Z,101199.94
2023-02-12T09:46:42.058Z,101202.58
2023-02-12T09:47:50.192Z,101198.05
2023-02-12T09:49:13.604Z,101194.98
2023-02-12T09:50:21.432Z,101196.36
2023-02-12T09:51:28.342Z,101191.02
2023-02-12T09:52:32.580Z,101190.00
2023-02-12T09:53:38.715Z,101185.44
2023-02-12T09:54:43.143Z,101184.94
2023-02-12T09:55:46.545Z,101183.48
2023-02-12T09:56:53.788Z,101184.95
2023-02-12T09:57:57.419Z,101188.92
2023-02-12T09:59:03.210Z,101174.95
2023-02-12T10:00:15.399Z,101186.50
2023-02-12T10:01:19.877Z,101180.01
2023-02-12T10:02:24.175Z,101181.84
2023-02-12T10:03:29.349Z,101178.33
2023-02-12T10:04:33.857Z,101186.23
2023-02-12T10:05:39.317Z,101182.00
2023-02-12T10:06:45.750Z,101172.02
2023-02-12T10:08:08.656Z,101172.23
2023-02-12T10:09:16.018Z,101172.70
2023-02-12T10:10:24.335Z,101184.05
2023-02-12T10:11:32.468Z,101181.77
2023-02-12T10:12:49.097Z,101182.60
2023-02-12T10:13:58.334Z,101172.98
2023-02-12T10:15:20.333Z,101180.22
2023-02-12T10:16:38.325Z,101175.63
2023-02-12T10:17:43.145Z,101177.96
2023-02-12T10:18:51.800Z,101185.41
2023-02-12T10:20:08.481Z,101188.26
2023-02-12T10:21:32.085Z,101183.73
2023-02-12T10:22:55.032Z,101177.83
2023-02-12T10:23:54.016Z,101186.16
2023-02-12T10:25:02.126Z,101188.94
2023-02-12T10:26:16.416Z,101189.60
2023-02-12T10:27:21.670Z,101191.04
2023-02-12T10:28:29.817Z,101181.45
2023-02-12T10:29:35.980Z,101189.64
2023-02-12T10:30:44.670Z,101190.14
2023-02-12T10:31:48.991Z,101188.23
2023-02-12T10:32:53.286Z,101184.91
2023-02-12T10:33:57.751Z,101191.04
2023-02-12T10:35:01.453Z,101188.02
2023-02-12T10:36:05.686Z,101193.52
2023-02-12T10:37:11.900Z,101190.14
2023-02-12T10:38:16.867Z,101198.09
2023-02-12T10:39:22.273Z,101193.56
2023-02-12T10:40:30.672Z,101192.87
2023-02-12T10:41:34.676Z,101199.96
2023-02-12T10:42:42.282Z,101196.05
2023-02-12T10:43:47.138Z,101202.89
2023-02-12T10:44:52.309Z,101205.42
2023-02-12T10:45:57.054Z,101203.16
2023-02-12T10:47:01.624Z,101211.64
2023-02-12T10:48:08.293Z,101202.85
2023-02-12T10:49:14.456Z,101203.78
2023-02-12T10:50:21.261Z,101205.60
2023-02-12T10:51:37.776Z,101203.07
2023-02-12T10:52:52.732Z,101215.21
2023-02-12T10:53:56.291Z,101225.16
2023-02-12T10:55:03.994Z,101214.38
2023-02-12T10:56:15.203Z,101216.53
2023-02-12T10:57:22.669Z,101218.98
2023-02-12T10:58:25.032Z,101219.78
2023-02-12T10:59:30.001Z,101215.66
2023-02-12T11:00:38.402Z,101215.38
2023-02-12T11:01:43.608Z,101215.70
2023-02-12T11:02:48.871Z,101219.49
2023-02-12T11:03:52.583Z,101226.87
2023-02-12T11:04:55.697Z,101231.73
2023-02-12T11:06:01.998Z,101238.69
2023-02-12T11:07:10.217Z,101237.85
2023-02-12T11:08:30.631Z,101237.92
2023-02-12T11:09:42.581Z,101243.59
2023-02-12T11:10:46.098Z,101243.75
2023-02-12T11:11:49.614Z,101232.51
2023-02-12T11:12:54.795Z,101248.20
2023-02-12T11:14:02.659Z,101246.09
2023-02-12T11:15:20.061Z,101257.16
2023-02-12T11:16:31.378Z,101252.25
2023-02-12T11:17:36.166Z,101248.13
2023-02-12T11:18:41.132Z,101244.70
2023-02-12T11:19:43.484Z,101252.22
2023-02-12T11:20:52.013Z,101253.05
2023-02-12T11:21:56.654Z,101252.51
2023-02-12T11:23:01.384Z,101252.69
2023-02-12T11:24:22.684Z,101260.92
2023-02-12T11:25:34.646Z,101261.72
2023-02-12T11:26:37.929Z,101257.92
2023-02-12T11:27:41.225Z,101260.61
2023-02-12T11:29:01.395Z,101255.13
2023-02-12T11:30:12.576Z,101252.36
2023-02-12T11:31:17.763Z,101254.06
2023-02-12T11:32:20.866Z,101247.41
2023-02-12T11:33:28.956Z,101256.89
2023-02-12T11:34:32.454Z,101257.95
2023-02-12T11:35:37.205Z,101259.34
2023-02-12T11:36:45.235Z,101248.27
2023-02-12T11:37:49.142Z,101250.66
2023-02-12T11:38:55.177Z,101252.06
2023-02-12T11:40:00.506Z,101247.05
2023-02-12T11:41:05.809Z,101248.58
2023-02-12T11:42:19.355Z,101245.93
2023-02-12T11:43:23.828Z,101247.41
2023-02-12T11:44:30.103Z,101258.09
2023-02-12T11:45:38.101Z,101235.30
2023-02-12T11:46:45.210Z,101245.47
2023-02-12T11:47:50.445Z,101251.11
2023-02-12T11:48:55.100Z,101253.05
2023-02-12T11:50:01.664Z,101257.47
2023-02-12T11:51:05.930Z,101250.42
2023-02-12T11:52:10.525Z,101252.53
2023-02-12T11:53:15.492Z,101255.19
2023-02-12T11:54:26.341Z,101252.09
2023-02-12T11:55:33.548Z,101251.28
2023-02-12T11:56:46.780Z,101248.19
2023-02-12T11:57:53.902Z,101247.83
2023-02-12T11:58:59.032Z,101250.60
2023-02-12T12:00:03.896Z,101255.82
2023-02-12T12:01:11.649Z,101252.73
2023-02-12T12:02:26.989Z,101241.52
2023-02-12T12:03:42.495Z,101254.58
2023-02-12T12:04:47.195Z,101247.63
2023-02-12T12:05:54.503Z,101241.56
2023-02-12T12:07:05.966Z,101242.73
2023-02-12T12:08:16.754Z,101251.16
2023-02-12T12:09:41.957Z,101250.18
2023-02-12T12:10:56.902Z,101261.61
2023-02-12T12:12:21.296Z,101254.75
2023-02-12T12:13:26.682Z,101264.95
2023-02-12T12:14:38.125Z,101258.48
2023-02-12T12:16:01.230Z,101263.30
2023-02-12T12:17:24.396Z,101259.94
2023-02-12T12:18:47.231Z,101266.62
2023-02-12T12:19:58.884Z,101257.78
2023-02-12T12:21:05.417Z,101251.02
2023-02-12T12:22:15.602Z,101259.17
2023-02-12T12:23:38.331Z,101257.09
2023-02-12T12:24:42.453Z,101254.50
2023-02-12T12:25:53.280Z,101264.56
2023-02-12T12:26:59.293Z,101261.92
2023-02-12T12:28:08.991Z,101259.74
2023-02-12T12:29:22.702Z,101257.27
2023-02-12T12:30:29.650Z,101258.66
2023-02-12T12:31:34.861Z,101265.72
2023-02-12T12:32:39.994Z,101265.43
2023-02-12T12:33:50.085Z,101259.49
2023-02-12T12:34:52.541Z,101264.17
2023-02-12T12:35:59.806Z,101266.33